»·PEaware :: N295HB L52-L88

N295HB :: L52-L88

FLIGHT INFORMATION

Flight Status: Arrived
Operator: Privately registered:
United States
More flights under this callsign
Pilot: Flurin D. (20281)
Aircraft: PIPER PA-18 SUPER CUB
(PA18)
More flights by this aircraft type
Origin: L52 Oceano Co
United States
Destination: L88 New Cuyama
United States
More flights between these airports :: More routes between these airports
Route:
File this flight plan on PilotEdge
Remarks:
Altitude:
(Current/Filed)
7,500ft
Speed:
(Current/Filed)
100kts
Departed: 21-Sep-18 03:54 PM
Arrived: 21-Sep-18 04:30 PM
Distance/Time
Traveled:
47nm/0:36
Distance/Time
To Go:
Arrived

Flight Plot

Page will automatically refresh every two minutes.


Map Options




Map Legend


Flown Route
Filed Route
Departure Airport
Arrival Airport
Navaid (VOR, NDB)
Fix

Horizontal Profiles

Position Reports

Time Latitude Longitude Heading Altitude Ground
Speed
21-Sep-18 15:35 35.103556 -120.624280 214 15ft 0kts
21-Sep-18 15:36 35.103556 -120.624280 214 15ft 0kts
21-Sep-18 15:37 35.103556 -120.624280 214 15ft 0kts
21-Sep-18 15:38 35.103556 -120.624280 214 15ft 0kts
21-Sep-18 15:39 35.103556 -120.624280 214 15ft 0kts
21-Sep-18 15:40 35.103556 -120.624280 214 15ft 0kts
21-Sep-18 15:41 35.103556 -120.624280 214 15ft 0kts
21-Sep-18 15:42 35.103556 -120.624280 214 15ft 0kts
21-Sep-18 15:43 35.103556 -120.624280 214 15ft 0kts
21-Sep-18 15:44 35.103556 -120.624280 214 15ft 0kts
21-Sep-18 15:45 35.103556 -120.624280 214 15ft 0kts
21-Sep-18 15:46 35.103556 -120.624280 214 15ft 0kts
21-Sep-18 15:47 35.103556 -120.624280 214 15ft 0kts
21-Sep-18 15:48 35.103556 -120.624280 214 15ft 0kts
21-Sep-18 15:49 35.103556 -120.624280 214 15ft 0kts
21-Sep-18 15:50 35.103555 -120.624281 214 15ft 0kts
21-Sep-18 15:51 35.103138 -120.624157 131 15ft 11kts
21-Sep-18 15:52 35.101838 -120.622151 212 16ft 0kts
21-Sep-18 15:53 35.101838 -120.622151 212 16ft 0kts
21-Sep-18 15:54 35.101838 -120.622151 212 16ft 0kts
21-Sep-18 15:55 35.101719 -120.622228 203 16ft 6kts
21-Sep-18 15:56 35.104949 -120.629127 288 407ft 53kts
21-Sep-18 15:57 35.088181 -120.634978 145 1536ft 76kts
21-Sep-18 15:58 35.085126 -120.610949 52 2561ft 86kts
21-Sep-18 15:59 35.107637 -120.602576 52 3590ft 111kts
21-Sep-18 16:00 35.104318 -120.564102 99 4572ft 117kts
21-Sep-18 16:01 35.098467 -120.525729 99 5559ft 116kts
21-Sep-18 16:02 35.093346 -120.487365 99 6556ft 114kts
21-Sep-18 16:03 35.089220 -120.451085 99 7533ft 102kts
21-Sep-18 16:04 35.086030 -120.417411 99 8462ft 99kts
21-Sep-18 16:05 35.083412 -120.384587 98 9353ft 96kts
21-Sep-18 16:06 35.075991 -120.356149 134 10196ft 87kts
21-Sep-18 16:07 35.066774 -120.328456 116 10519ft 109kts
21-Sep-18 16:08 35.054959 -120.292181 116 9031ft 121kts
21-Sep-18 16:09 35.042144 -120.254047 116 7524ft 124kts
21-Sep-18 16:10 35.031766 -120.223470 109 7829ft 73kts
21-Sep-18 16:11 35.029512 -120.198336 102 7802ft 74kts
21-Sep-18 16:12 35.026690 -120.174293 101 7784ft 74kts
21-Sep-18 16:13 35.023348 -120.149592 103 7765ft 73kts
21-Sep-18 16:14 35.019937 -120.125107 103 7743ft 73kts
21-Sep-18 16:15 35.015439 -120.100665 108 7738ft 85kts
21-Sep-18 16:16 35.007953 -120.066944 107 7739ft 110kts
21-Sep-18 16:17 34.999932 -120.030279 107 7711ft 112kts
21-Sep-18 16:18 34.991976 -119.993682 107 7681ft 111kts
21-Sep-18 16:19 34.984017 -119.956934 106 7651ft 111kts
21-Sep-18 16:20 34.976181 -119.920680 106 7621ft 111kts
21-Sep-18 16:21 34.968272 -119.884013 106 7592ft 112kts
21-Sep-18 16:22 34.960411 -119.847489 106 7563ft 112kts
21-Sep-18 16:23 34.952528 -119.810789 106 7534ft 112kts
21-Sep-18 16:24 34.945757 -119.777623 106 6457ft 95kts
21-Sep-18 16:25 34.937816 -119.747359 119 5042ft 94kts
21-Sep-18 16:26 34.926989 -119.719949 119 5011ft 101kts
21-Sep-18 16:27 34.914058 -119.689504 120 4479ft 90kts
21-Sep-18 16:28 34.903784 -119.664557 118 3930ft 71kts
21-Sep-18 16:29 34.915331 -119.649376 349 3965ft 64kts
21-Sep-18 16:30 34.928456 -119.658772 305 3285ft 75kts
21-Sep-18 16:31 34.937562 -119.679684 287 2213ft 45kts
21-Sep-18 16:32 34.941716 -119.689872 295 2159ft 19kts
21-Sep-18 16:33 34.942331 -119.690546 20 2157ft 0kts
21-Sep-18 16:34 34.942331 -119.690546 20 2157ft 0kts
21-Sep-18 16:35 34.942331 -119.690546 20 2157ft 0kts
21-Sep-18 16:36 34.942331 -119.690546 20 2157ft 0kts
21-Sep-18 16:37 34.942331 -119.690546 20 2157ft 0kts
21-Sep-18 16:38 34.942331 -119.690546 20 2157ft 0kts
21-Sep-18 16:39 34.942331 -119.690546 20 2157ft 0kts
21-Sep-18 16:40 34.942331 -119.690546 20 2157ft 0kts
21-Sep-18 16:41 34.942331 -119.690546 20 2157ft 0kts
21-Sep-18 16:42 34.942331 -119.690546 20 2157ft 0kts
21-Sep-18 16:43 34.942331 -119.690546 20 2157ft 0kts
21-Sep-18 16:44 34.942331 -119.690546 20 2157ft 0kts
21-Sep-18 16:45 34.942331 -119.690546 20 2157ft 0kts
21-Sep-18 16:46 34.942331 -119.690546 20 2157ft 0kts

Navigation Log

Ident Type
Flight plan parsing failed, navigation log unavailable